Time;durP1;ratioP1;P1;durP2;ratioP2;P2;SDS_P1;SDS_P2;PMS_P1;PMS_P2;Temp;Humidity;BMP_temperature;BMP_pressure;BME280_temperature;BME280_humidity;BME280_pressure;Samples;Min_cycle;Max_cycle;Signal;HPM_P1;HPM_P2
2022/05/13 00:01:51;;;;;;;9.02;5.30;;;14.80;99.90;;;;;;4988419;28;20038;-87
2022/05/13 00:04:17;;;;;;;7.00;5.07;;;14.80;99.90;;;;;;5004444;28;20034;-87
2022/05/13 00:06:42;;;;;;;6.95;5.28;;;14.80;99.90;;;;;;5003166;28;20035;-87
2022/05/13 00:09:08;;;;;;;7.85;4.97;;;14.80;99.90;;;;;;5005448;28;20113;-87
2022/05/13 00:11:34;;;;;;;8.82;5.88;;;14.80;99.90;;;;;;4990498;28;20030;-87
2022/05/13 00:14:00;;;;;;;7.30;4.53;;;14.80;99.90;;;;;;4985853;28;20034;-87
2022/05/13 00:16:26;;;;;;;7.97;4.97;;;14.80;99.90;;;;;;4985904;28;20540;-88
2022/05/13 00:18:51;;;;;;;10.52;5.63;;;14.80;99.90;;;;;;4977482;28;20035;-87
2022/05/13 00:21:17;;;;;;;9.52;5.88;;;14.80;99.90;;;;;;4977417;28;20110;-87
2022/05/13 00:23:43;;;;;;;9.43;5.55;;;14.80;99.90;;;;;;5003382;28;20429;-86
2022/05/13 00:26:09;;;;;;;9.07;5.57;;;14.80;99.90;;;;;;5013120;28;20022;-87
2022/05/13 00:28:34;;;;;;;9.68;5.30;;;14.70;99.90;;;;;;5012957;28;20117;-87
2022/05/13 00:31:00;;;;;;;8.63;6.32;;;14.60;99.90;;;;;;4997414;28;20453;-87
2022/05/13 00:33:27;;;;;;;7.57;5.10;;;14.50;99.90;;;;;;4998330;28;20019;-87
2022/05/13 00:35:52;;;;;;;10.15;6.22;;;14.40;99.90;;;;;;4980596;28;20030;-87
2022/05/13 00:38:18;;;;;;;10.00;6.40;;;14.40;99.90;;;;;;4997731;28;20034;-86
2022/05/13 00:40:46;;;;;;;7.75;5.82;;;14.40;99.90;;;;;;4995483;28;20039;-87
2022/05/13 00:43:14;;;;;;;10.02;5.88;;;14.40;99.90;;;;;;4996983;28;20160;-87
2022/05/13 00:45:40;;;;;;;12.02;6.63;;;14.30;99.90;;;;;;4996152;28;20136;-87
2022/05/13 00:48:07;;;;;;;12.13;5.97;;;14.30;99.90;;;;;;4996662;28;20030;-87
2022/05/13 00:50:37;;;;;;;9.23;5.40;;;14.20;99.90;;;;;;4988054;28;20122;-87
2022/05/13 00:53:03;;;;;;;7.68;5.65;;;14.20;99.90;;;;;;5008669;28;20025;-86
2022/05/13 00:55:36;;;;;;;8.85;5.75;;;14.20;99.90;;;;;;4995277;28;20030;-87
2022/05/13 00:58:06;;;;;;;7.95;5.65;;;14.20;99.90;;;;;;4988516;28;20109;-87
2022/05/13 01:00:31;;;;;;;7.88;6.22;;;14.20;99.90;;;;;;4996238;28;20034;-87
2022/05/13 01:02:57;;;;;;;12.10;5.18;;;14.20;99.90;;;;;;4994942;28;20041;-87
2022/05/13 01:05:23;;;;;;;7.97;5.93;;;14.20;99.90;;;;;;4985827;28;20026;-87
2022/05/13 01:07:51;;;;;;;8.38;5.85;;;14.20;99.90;;;;;;5011789;28;20113;-87
2022/05/13 01:10:21;;;;;;;9.32;6.00;;;14.20;99.90;;;;;;5012097;28;20030;-87
2022/05/13 01:12:52;;;;;;;8.40;5.35;;;14.10;99.90;;;;;;5011608;28;20034;-87
2022/05/13 01:15:25;;;;;;;8.48;6.10;;;14.10;99.90;;;;;;4996464;28;20028;-85
2022/05/13 01:18:07;;;;;;;7.55;5.75;;;14.10;99.90;;;;;;4991324;28;20073;-87
2022/05/13 01:20:46;;;;;;;7.93;5.28;;;14.10;99.90;;;;;;4977323;28;20494;-87
2022/05/13 01:23:33;;;;;;;11.55;6.10;;;14.10;99.90;;;;;;4990824;28;20393;-87
2022/05/13 01:26:03;;;;;;;8.40;5.55;;;14.20;99.90;;;;;;4972408;28;20045;-87
2022/05/13 01:28:39;;;;;;;7.57;6.07;;;14.20;99.90;;;;;;4985945;28;20037;-87
2022/05/13 01:31:08;;;;;;;7.25;5.60;;;14.10;99.90;;;;;;4989185;28;20030;-86
2022/05/13 01:33:35;;;;;;;6.13;4.57;;;14.10;99.90;;;;;;4991344;28;20018;-87
2022/05/13 01:36:02;;;;;;;8.40;5.20;;;14.00;99.90;;;;;;4997786;28;20061;-87
2022/05/13 01:38:31;;;;;;;7.72;5.60;;;14.10;99.90;;;;;;4995064;28;20026;-87
2022/05/13 01:40:58;;;;;;;8.13;5.38;;;14.00;99.90;;;;;;4983856;28;20022;-87
2022/05/13 01:43:24;;;;;;;10.35;5.55;;;14.00;99.90;;;;;;4991726;28;20022;-87
2022/05/13 01:45:51;;;;;;;9.27;5.93;;;14.00;99.90;;;;;;5002671;28;20058;-87
2022/05/13 01:48:17;;;;;;;7.80;5.82;;;13.90;99.90;;;;;;4996835;28;20023;-86
2022/05/13 01:50:43;;;;;;;9.82;5.70;;;13.90;99.90;;;;;;4999383;28;20388;-87
2022/05/13 01:53:10;;;;;;;8.15;5.60;;;13.90;99.90;;;;;;5029710;28;20026;-87
2022/05/13 01:55:36;;;;;;;9.18;6.75;;;14.00;99.90;;;;;;5018694;28;20022;-87
2022/05/13 01:58:02;;;;;;;7.85;5.78;;;14.00;99.90;;;;;;5000333;28;20044;-87
2022/05/13 02:00:28;;;;;;;10.68;6.85;;;14.00;99.90;;;;;;5014301;28;20079;-87
2022/05/13 02:05:39;;;;;;;8.73;6.03;;;13.90;99.90;;;;;;5001850;28;20120;-86
2022/05/13 02:08:04;;;;;;;7.75;6.25;;;14.00;99.90;;;;;;4990185;28;20054;-87
2022/05/13 02:10:30;;;;;;;10.30;6.45;;;13.90;99.90;;;;;;4999025;28;20097;-86
2022/05/13 02:12:57;;;;;;;8.88;5.55;;;13.90;99.90;;;;;;4992413;28;20026;-87
2022/05/13 02:15:22;;;;;;;9.85;6.18;;;13.90;99.90;;;;;;4991293;28;20037;-87
2022/05/13 02:17:48;;;;;;;8.07;6.28;;;14.00;99.90;;;;;;5006555;28;20148;-87
2022/05/13 02:20:14;;;;;;;8.43;5.13;;;14.00;99.90;;;;;;4997409;28;20041;-86
2022/05/13 02:22:39;;;;;;;6.45;4.75;;;14.00;99.90;;;;;;4989408;28;20025;-87
2022/05/13 02:25:06;;;;;;;6.97;5.22;;;13.90;99.90;;;;;;4992658;28;20843;-86
2022/05/13 02:27:32;;;;;;;6.78;5.05;;;13.90;99.90;;;;;;4994192;28;20471;-87
2022/05/13 02:29:58;;;;;;;8.48;4.97;;;13.90;99.90;;;;;;5007364;28;20129;-87
2022/05/13 02:32:24;;;;;;;7.35;5.63;;;13.80;99.90;;;;;;4999518;28;20501;-87
2022/05/13 02:34:49;;;;;;;6.50;4.97;;;13.70;99.90;;;;;;4991950;28;20088;-87
2022/05/13 02:37:15;;;;;;;8.00;5.60;;;13.70;99.90;;;;;;4987707;28;20034;-87
2022/05/13 02:39:41;;;;;;;6.70;4.70;;;13.70;99.90;;;;;;4981920;28;20030;-87
2022/05/13 02:42:07;;;;;;;8.95;4.93;;;13.70;99.90;;;;;;4989923;28;20068;-86
2022/05/13 02:44:33;;;;;;;7.82;4.47;;;13.70;99.90;;;;;;4990174;28;20026;-86
2022/05/13 02:46:58;;;;;;;6.93;4.25;;;13.70;99.90;;;;;;4992211;28;20053;-87
2022/05/13 02:49:24;;;;;;;5.15;3.97;;;13.70;99.90;;;;;;4989068;28;20031;-87
2022/05/13 02:51:50;;;;;;;7.85;4.68;;;13.70;99.90;;;;;;4973260;28;20035;-87
2022/05/13 02:54:17;;;;;;;5.90;4.22;;;13.80;99.90;;;;;;4988085;28;20030;-87
2022/05/13 02:56:43;;;;;;;7.05;4.90;;;13.70;99.90;;;;;;4987702;28;20471;-87
2022/05/13 02:59:09;;;;;;;17.67;5.50;;;13.70;99.90;;;;;;4972524;28;20110;-86
2022/05/13 03:01:36;;;;;;;8.48;4.70;;;13.60;99.90;;;;;;4985262;28;20149;-87
2022/05/13 03:04:01;;;;;;;5.60;4.65;;;13.70;99.90;;;;;;5003948;28;20043;-86
2022/05/13 03:06:27;;;;;;;6.20;4.28;;;13.70;99.90;;;;;;4989741;28;20038;-87
2022/05/13 03:08:54;;;;;;;8.15;4.75;;;13.70;99.90;;;;;;4978882;28;20906;-87
2022/05/13 03:11:23;;;;;;;7.75;4.50;;;13.80;99.90;;;;;;4986678;28;20050;-87
2022/05/13 03:13:50;;;;;;;6.68;3.95;;;13.80;99.90;;;;;;4981484;28;20054;-86
2022/05/13 03:16:22;;;;;;;7.63;4.60;;;13.80;99.90;;;;;;4989596;28;20037;-87
2022/05/13 03:18:52;;;;;;;7.57;4.50;;;13.80;99.90;;;;;;4992152;28;20026;-87
2022/05/13 03:21:18;;;;;;;5.45;4.38;;;13.80;99.90;;;;;;4990460;28;20505;-87
2022/05/13 03:23:44;;;;;;;6.47;4.57;;;13.80;99.90;;;;;;4982911;28;20038;-87
2022/05/13 03:26:12;;;;;;;8.90;4.65;;;13.80;99.90;;;;;;4991946;28;20030;-87
2022/05/13 03:28:38;;;;;;;5.88;4.45;;;13.90;99.90;;;;;;4986452;28;20129;-86
2022/05/13 03:31:04;;;;;;;9.35;5.05;;;13.90;99.90;;;;;;4978078;28;20141;-86
2022/05/13 03:33:29;;;;;;;6.97;5.20;;;13.80;99.90;;;;;;4972615;28;20086;-87
2022/05/13 03:35:55;;;;;;;7.18;4.95;;;13.80;99.90;;;;;;4987261;28;20508;-87
2022/05/13 03:38:21;;;;;;;6.32;4.55;;;13.80;99.90;;;;;;4991111;28;20374;-87
2022/05/13 03:40:46;;;;;;;5.82;4.40;;;13.80;99.90;;;;;;5005725;28;20045;-87
2022/05/13 03:43:13;;;;;;;6.85;4.75;;;13.90;99.90;;;;;;4990356;28;20184;-87
2022/05/13 03:45:39;;;;;;;7.05;4.68;;;13.80;99.90;;;;;;4989880;28;20054;-87
2022/05/13 03:48:05;;;;;;;7.13;4.88;;;13.80;99.90;;;;;;4990348;28;20046;-87
2022/05/13 03:50:33;;;;;;;6.10;4.80;;;13.80;99.90;;;;;;4989063;28;20022;-87
2022/05/13 03:52:59;;;;;;;7.18;4.93;;;13.70;99.90;;;;;;4990971;28;20033;-87
2022/05/13 03:55:25;;;;;;;8.30;5.05;;;13.80;99.90;;;;;;5005920;28;20033;-87
2022/05/13 03:57:51;;;;;;;5.97;4.82;;;13.80;99.90;;;;;;5005937;28;20030;-87
2022/05/13 04:00:17;;;;;;;6.43;5.28;;;13.80;99.90;;;;;;4990481;28;20061;-87
2022/05/13 04:02:43;;;;;;;6.30;4.82;;;13.70;99.90;;;;;;4991151;28;20018;-87
2022/05/13 04:10:38;;;;;;;5.90;4.80;;;13.90;99.90;;;;;;4990748;28;20029;-87
2022/05/13 04:16:06;;;;;;;7.05;5.47;;;13.90;99.90;;;;;;4990102;28;20224;-87
2022/05/13 04:18:41;;;;;;;7.72;5.20;;;14.00;99.90;;;;;;5003262;28;20030;-87
2022/05/13 04:21:10;;;;;;;7.95;5.00;;;13.90;99.90;;;;;;4974341;28;20065;-86
2022/05/13 04:23:38;;;;;;;8.13;5.60;;;13.90;99.90;;;;;;4992528;28;20367;-87
2022/05/13 04:26:03;;;;;;;8.15;6.18;;;14.00;99.90;;;;;;4986592;28;20039;-87
2022/05/13 04:28:30;;;;;;;9.77;5.82;;;14.00;99.90;;;;;;5003203;28;20045;-86
2022/05/13 04:30:58;;;;;;;8.70;5.63;;;14.00;99.90;;;;;;4987563;28;20508;-86
2022/05/13 04:33:24;;;;;;;8.20;5.85;;;14.00;99.90;;;;;;4989674;28;20018;-86
2022/05/13 04:35:50;;;;;;;9.55;6.00;;;14.00;99.90;;;;;;4987337;28;20037;-83
2022/05/13 04:38:15;;;;;;;9.32;5.93;;;14.00;99.90;;;;;;5000875;28;20438;-83
2022/05/13 04:40:41;;;;;;;10.35;6.20;;;14.00;99.90;;;;;;4986829;28;20113;-83
2022/05/13 04:43:07;;;;;;;8.77;5.22;;;14.10;99.90;;;;;;4989705;28;20042;-81
2022/05/13 04:45:33;;;;;;;8.43;5.20;;;14.00;99.90;;;;;;4988178;28;20774;-82
2022/05/13 04:48:16;;;;;;;6.95;5.13;;;14.20;99.90;;;;;;4993474;28;20041;-82
2022/05/13 04:50:54;;;;;;;10.00;6.45;;;14.10;99.90;;;;;;4988227;28;20019;-82
2022/05/13 04:53:25;;;;;;;8.30;5.63;;;14.20;99.90;;;;;;4990251;28;20026;-82
2022/05/13 04:55:51;;;;;;;8.30;6.07;;;14.20;99.90;;;;;;4992452;28;20045;-82
2022/05/13 04:58:18;;;;;;;9.40;6.20;;;14.20;99.90;;;;;;4998458;28;20026;-82
2022/05/13 05:00:45;;;;;;;11.20;6.00;;;14.30;99.90;;;;;;5021963;28;20046;-82
2022/05/13 05:03:11;;;;;;;8.63;5.97;;;14.40;99.90;;;;;;5026937;28;20064;-82
2022/05/13 05:05:37;;;;;;;7.10;5.65;;;14.40;99.90;;;;;;5007819;28;20022;-82
2022/05/13 05:08:03;;;;;;;9.38;6.38;;;14.50;99.90;;;;;;5002341;28;20046;-82
2022/05/13 05:10:29;;;;;;;10.77;6.40;;;14.40;99.90;;;;;;5011435;28;20042;-82
2022/05/13 05:12:56;;;;;;;7.53;6.15;;;14.30;99.90;;;;;;4992877;28;20413;-82
2022/05/13 05:15:22;;;;;;;7.35;5.95;;;14.40;99.90;;;;;;4991794;28;20429;-82
2022/05/13 05:17:48;;;;;;;9.65;5.97;;;14.50;99.90;;;;;;4990979;28;20068;-82
2022/05/13 05:20:15;;;;;;;10.25;6.43;;;14.60;99.90;;;;;;4993207;28;20474;-83
2022/05/13 05:22:44;;;;;;;8.23;6.00;;;14.70;99.90;;;;;;4990674;28;20899;-82
2022/05/13 05:25:11;;;;;;;9.60;5.93;;;14.90;99.90;;;;;;4990556;28;20030;-83
2022/05/13 05:27:36;;;;;;;7.43;5.82;;;14.90;99.90;;;;;;4988809;28;20041;-82
2022/05/13 05:30:05;;;;;;;8.82;6.20;;;14.90;99.90;;;;;;4986787;28;20589;-82
2022/05/13 05:32:30;;;;;;;11.30;7.05;;;15.00;99.90;;;;;;5000795;28;20069;-82
2022/05/13 05:34:56;;;;;;;8.30;5.82;;;14.90;99.90;;;;;;4992552;28;20061;-82
2022/05/13 05:37:22;;;;;;;7.32;5.95;;;14.90;99.90;;;;;;4988011;28;20109;-81
2022/05/13 05:39:47;;;;;;;7.78;5.85;;;14.90;99.90;;;;;;4977494;28;20062;-82
2022/05/13 05:42:13;;;;;;;9.02;6.78;;;14.90;99.90;;;;;;5007645;28;20035;-82
2022/05/13 05:44:39;;;;;;;9.80;6.38;;;15.00;99.90;;;;;;4992461;28;20462;-82
2022/05/13 05:47:05;;;;;;;8.15;5.97;;;15.10;99.90;;;;;;4996701;28;20053;-82
2022/05/13 05:49:31;;;;;;;10.35;6.50;;;15.20;99.90;;;;;;4991276;28;20042;-81
2022/05/13 05:51:57;;;;;;;8.82;6.05;;;15.40;99.90;;;;;;4991269;28;20089;-82
2022/05/13 05:57:16;;;;;;;8.40;6.13;;;15.80;99.90;;;;;;4985141;28;20034;-81
2022/05/13 05:59:46;;;;;;;9.20;6.35;;;16.00;99.90;;;;;;4988105;28;20034;-81
2022/05/13 06:02:12;;;;;;;8.23;5.97;;;16.00;99.90;;;;;;4986728;28;20852;-81
2022/05/13 06:04:39;;;;;;;9.98;5.60;;;16.20;99.90;;;;;;4989776;28;20034;-81
2022/05/13 06:07:11;;;;;;;7.97;5.05;;;16.10;99.90;;;;;;4991637;28;20117;-81
2022/05/13 06:09:38;;;;;;;7.30;6.05;;;16.20;99.90;;;;;;4974385;28;20038;-82
2022/05/13 06:12:07;;;;;;;7.80;5.28;;;16.20;99.90;;;;;;4991751;28;20026;-81
2022/05/13 06:14:33;;;;;;;9.95;5.22;;;16.30;99.90;;;;;;4991883;28;20069;-81
2022/05/13 06:16:59;;;;;;;8.10;5.95;;;16.30;99.90;;;;;;4987188;28;20038;-82
2022/05/13 06:19:25;;;;;;;8.77;6.68;;;16.30;99.90;;;;;;4991520;28;20026;-82
2022/05/13 06:21:51;;;;;;;12.43;8.70;;;16.30;99.90;;;;;;5006670;28;20038;-82
2022/05/13 06:24:18;;;;;;;6.90;5.70;;;16.20;99.90;;;;;;4990566;28;20038;-81
2022/05/13 06:26:45;;;;;;;7.90;6.20;;;16.20;99.90;;;;;;4989985;28;20034;-81
2022/05/13 06:29:11;;;;;;;7.85;5.95;;;16.20;99.90;;;;;;4991637;28;20439;-82
2022/05/13 06:31:37;;;;;;;8.60;6.18;;;16.30;99.90;;;;;;4990389;28;20038;-82
2022/05/13 06:34:04;;;;;;;7.72;5.90;;;16.40;99.90;;;;;;4991941;28;20018;-82
2022/05/13 06:36:31;;;;;;;8.52;6.65;;;16.50;99.90;;;;;;4984041;28;20031;-82
2022/05/13 06:38:58;;;;;;;9.57;6.15;;;16.70;99.90;;;;;;4973327;28;20038;-82
2022/05/13 06:41:24;;;;;;;8.00;6.15;;;16.80;99.90;;;;;;4972596;28;20034;-82
2022/05/13 06:43:50;;;;;;;8.85;6.78;;;16.70;99.90;;;;;;4987561;28;20037;-82
2022/05/13 06:46:16;;;;;;;7.55;5.80;;;16.60;99.90;;;;;;4991269;28;20042;-82
2022/05/13 06:48:42;;;;;;;8.65;6.60;;;16.50;99.90;;;;;;4990370;28;20435;-82
2022/05/13 06:51:07;;;;;;;10.05;6.07;;;16.70;99.90;;;;;;4991129;28;20557;-82
2022/05/13 06:53:33;;;;;;;7.88;6.07;;;16.90;99.90;;;;;;5006375;28;20109;-82
2022/05/13 06:56:01;;;;;;;9.55;6.32;;;17.10;99.90;;;;;;5006562;28;20026;-82
2022/05/13 06:58:27;;;;;;;10.40;6.57;;;17.10;99.90;;;;;;5006201;28;20037;-82
2022/05/13 07:00:53;;;;;;;10.40;6.45;;;17.10;99.90;;;;;;4985213;28;20031;-82
2022/05/13 07:03:20;;;;;;;10.43;6.45;;;17.20;99.90;;;;;;4977708;28;20729;-82
2022/05/13 07:05:46;;;;;;;8.63;6.38;;;17.20;99.90;;;;;;5006103;28;20513;-82
2022/05/13 07:08:13;;;;;;;8.85;7.07;;;17.20;99.90;;;;;;5006254;28;20041;-82
2022/05/13 07:10:39;;;;;;;9.23;6.70;;;17.10;99.90;;;;;;4990425;28;20034;-82
2022/05/13 07:13:06;;;;;;;9.32;6.90;;;17.10;99.90;;;;;;4990095;28;20093;-82
2022/05/13 07:15:33;;;;;;;11.27;6.60;;;17.10;99.90;;;;;;5004863;28;20027;-82
2022/05/13 07:17:59;;;;;;;9.73;6.55;;;17.00;99.90;;;;;;4987770;28;20026;-82
2022/05/13 07:20:27;;;;;;;10.15;7.07;;;17.00;99.90;;;;;;4988154;28;20034;-82
2022/05/13 07:22:54;;;;;;;12.05;6.72;;;17.10;99.90;;;;;;4987623;28;20026;-82
2022/05/13 07:25:19;;;;;;;9.88;7.32;;;17.10;99.90;;;;;;4987953;28;20478;-82
2022/05/13 07:27:45;;;;;;;8.45;6.30;;;17.10;99.90;;;;;;4989002;28;20037;-82
2022/05/13 07:30:11;;;;;;;13.30;7.45;;;17.20;99.90;;;;;;4988999;28;20031;-82
2022/05/13 07:32:37;;;;;;;10.52;6.53;;;17.20;99.90;;;;;;4982869;28;20119;-82
2022/05/13 07:35:04;;;;;;;12.85;6.32;;;17.30;99.90;;;;;;4987535;28;20030;-83
2022/05/13 07:37:30;;;;;;;8.55;6.55;;;17.60;99.90;;;;;;4988982;28;20042;-82
2022/05/13 07:42:39;;;;;;;12.38;7.43;;;17.90;99.90;;;;;;4987746;28;20053;-82
2022/05/13 07:45:06;;;;;;;9.40;6.95;;;18.20;99.90;;;;;;4989226;28;20441;-82
2022/05/13 07:47:31;;;;;;;7.93;6.85;;;18.30;99.90;;;;;;5004674;28;20053;-82
2022/05/13 07:49:57;;;;;;;9.25;6.57;;;18.40;99.90;;;;;;4989758;28;20032;-82
2022/05/13 07:52:24;;;;;;;7.10;5.65;;;18.70;99.90;;;;;;5005288;28;20038;-82
2022/05/13 07:54:50;;;;;;;10.55;7.40;;;18.40;99.90;;;;;;4990808;28;20782;-82
2022/05/13 07:57:16;;;;;;;8.38;6.20;;;18.20;99.90;;;;;;5005510;28;20030;-82
2022/05/13 08:02:26;;;;;;;10.13;6.55;;;18.50;99.90;;;;;;4990892;28;20501;-82
2022/05/13 08:04:51;;;;;;;9.93;6.45;;;18.50;99.90;;;;;;4991923;28;20034;-82
2022/05/13 08:07:17;;;;;;;7.07;6.22;;;18.30;99.90;;;;;;4995707;28;20034;-82
2022/05/13 08:09:42;;;;;;;12.23;6.75;;;18.10;99.90;;;;;;5000014;28;20485;-82
2022/05/13 08:12:09;;;;;;;10.18;6.40;;;18.20;99.90;;;;;;5004521;28;20034;-81
2022/05/13 08:14:34;;;;;;;11.50;7.30;;;18.30;99.90;;;;;;5002014;28;20053;-82
2022/05/13 08:17:00;;;;;;;7.45;6.10;;;18.60;99.90;;;;;;4992119;28;20030;-82
2022/05/13 08:19:25;;;;;;;8.25;5.93;;;18.80;99.90;;;;;;4987958;28;20494;-82
2022/05/13 08:21:51;;;;;;;10.95;6.25;;;18.80;99.90;;;;;;4990571;28;20050;-82
2022/05/13 08:24:17;;;;;;;12.55;7.10;;;19.20;99.90;;;;;;4990190;28;20133;-82
2022/05/13 08:26:43;;;;;;;8.30;5.80;;;19.30;99.90;;;;;;4973117;28;20129;-82
2022/05/13 08:29:08;;;;;;;9.43;7.00;;;19.50;99.90;;;;;;4989117;28;20041;-82
2022/05/13 08:31:34;;;;;;;10.32;6.22;;;19.20;99.90;;;;;;4978110;28;20038;-82
2022/05/13 08:34:00;;;;;;;11.50;5.55;;;18.90;99.90;;;;;;4988486;28;20030;-82
2022/05/13 08:36:25;;;;;;;7.53;5.50;;;18.50;99.90;;;;;;4992237;28;20058;-82
2022/05/13 08:38:51;;;;;;;7.03;5.60;;;18.00;99.90;;;;;;4993824;28;20030;-82
2022/05/13 08:41:32;;;;;;;8.93;6.30;;;17.50;99.90;;;;;;4992804;28;20073;-82
2022/05/13 08:44:04;;;;;;;9.00;6.18;;;17.30;99.90;;;;;;4989219;28;20614;-82
2022/05/13 08:46:40;;;;;;;7.88;5.80;;;17.10;99.90;;;;;;4982934;28;20494;-82
2022/05/13 08:49:20;;;;;;;7.38;5.63;;;16.90;99.90;;;;;;4990104;28;20057;-82
2022/05/13 08:53:06;;;;;;;7.53;5.00;;;16.70;99.90;;;;;;4993149;28;20031;-82
2022/05/13 08:54:58;;;;;;;8.13;5.80;;;16.50;99.90;;;;;;4988001;28;20034;-82
2022/05/13 08:57:28;;;;;;;9.82;3.75;;;16.30;99.90;;;;;;4991492;28;20493;-82
2022/05/13 09:00:06;;;;;;;6.97;3.63;;;15.80;99.90;;;;;;5005402;28;20049;-83
2022/05/13 09:02:38;;;;;;;5.07;2.60;;;14.70;99.90;;;;;;4995880;28;20030;-84
2022/05/13 09:05:32;;;;;;;4.50;1.92;;;14.50;99.90;;;;;;4993942;28;20053;-84
2022/05/13 09:08:00;;;;;;;3.47;1.65;;;14.30;99.90;;;;;;4992807;28;20573;-83
2022/05/13 09:10:26;;;;;;;5.13;1.85;;;14.20;99.90;;;;;;4994016;28;20039;-84
2022/05/13 09:13:15;;;;;;;10.68;1.98;;;14.00;99.90;;;;;;4976790;28;20027;-84
2022/05/13 09:15:53;;;;;;;11.27;2.00;;;14.20;99.90;;;;;;5001500;28;20169;-84
2022/05/13 09:18:36;;;;;;;2.83;1.77;;;14.20;99.90;;;;;;4989050;28;20122;-83
2022/05/13 09:21:09;;;;;;;8.30;2.60;;;14.40;99.90;;;;;;4980508;28;20117;-83
2022/05/13 09:23:35;;;;;;;4.43;2.10;;;14.60;99.90;;;;;;4988828;28;20026;-83
2022/05/13 09:26:08;;;;;;;4.82;2.20;;;14.70;99.90;;;;;;4976989;28;20062;-83
2022/05/13 09:28:36;;;;;;;10.32;2.10;;;14.60;99.90;;;;;;5008131;28;20034;-83
2022/05/13 09:31:19;;;;;;;10.13;2.67;;;14.70;99.90;;;;;;4991275;28;20117;-83
2022/05/13 09:33:49;;;;;;;2.80;1.90;;;14.80;99.90;;;;;;4993029;28;20101;-83
2022/05/13 09:36:23;;;;;;;2.53;1.67;;;14.90;99.90;;;;;;5008034;28;20065;-83
2022/05/13 09:38:57;;;;;;;3.90;2.25;;;14.80;99.90;;;;;;5001956;28;20038;-83
2022/05/13 09:41:28;;;;;;;4.65;2.45;;;14.70;99.90;;;;;;4993066;28;20037;-83
2022/05/13 09:44:16;;;;;;;6.63;2.60;;;14.80;99.90;;;;;;4993004;28;20034;-83
2022/05/13 09:47:06;;;;;;;3.58;2.22;;;14.90;99.90;;;;;;4980569;28;20054;-83
2022/05/13 09:49:39;;;;;;;3.92;2.20;;;15.00;99.90;;;;;;5000091;28;20054;-83
2022/05/13 09:52:10;;;;;;;4.75;2.65;;;15.10;99.90;;;;;;4991891;28;20034;-83
2022/05/13 09:54:38;;;;;;;3.78;2.20;;;15.50;99.90;;;;;;4990837;28;20030;-83
2022/05/13 09:57:29;;;;;;;4.05;2.40;;;15.50;99.90;;;;;;4991069;28;20441;-83
2022/05/13 09:59:59;;;;;;;4.18;2.30;;;15.30;99.90;;;;;;4983373;28;20036;-83
2022/05/13 10:02:31;;;;;;;;;;;15.20;99.90;;;;;;4992558;28;20050;-83
2022/05/13 10:05:24;;;;;;;3.80;1.88;;;15.20;99.90;;;;;;4992110;28;19920;-83
2022/05/13 10:07:53;;;;;;;5.05;3.22;;;15.30;99.90;;;;;;4981453;28;20038;-83
2022/05/13 10:16:18;;;;;;;6.75;3.22;;;15.70;99.90;;;;;;4987954;28;20142;-82
2022/05/13 10:18:57;;;;;;;5.90;3.65;;;16.50;99.90;;;;;;4993448;28;20043;-83
2022/05/13 10:21:31;;;;;;;6.43;3.70;;;17.00;99.90;;;;;;4989051;28;20064;-82
2022/05/13 10:24:13;;;;;;;9.52;3.90;;;16.60;99.90;;;;;;4982197;28;20030;-82
2022/05/13 10:26:42;;;;;;;9.82;3.88;;;16.90;99.90;;;;;;4981237;28;20046;-82
2022/05/13 10:29:31;;;;;;;6.65;3.17;;;17.00;99.90;;;;;;4980469;28;20467;-82
2022/05/13 10:31:57;;;;;;;9.10;3.28;;;16.40;99.90;;;;;;4990958;28;20039;-83
2022/05/13 10:34:43;;;;;;;7.78;3.80;;;15.80;99.90;;;;;;4985635;28;20715;-82
2022/05/13 10:37:24;;;;;;;10.02;3.83;;;15.90;99.90;;;;;;4984068;28;20117;-83
2022/05/13 10:39:58;;;;;;;7.85;4.15;;;16.30;99.90;;;;;;4985396;28;20034;-83
2022/05/13 10:42:39;;;;;;;8.10;4.07;;;16.40;99.90;;;;;;5007050;28;20040;-82
2022/05/13 10:45:23;;;;;;;6.95;3.78;;;16.30;99.90;;;;;;4974407;28;20026;-83
2022/05/13 10:47:57;;;;;;;11.73;4.32;;;16.90;99.90;;;;;;4990400;28;20042;-83
2022/05/13 10:50:29;;;;;;;8.98;3.50;;;17.50;99.90;;;;;;4989498;28;20027;-84
2022/05/13 10:53:10;;;;;;;7.40;3.55;;;17.90;99.90;;;;;;5006356;28;20038;-83
2022/05/13 10:55:57;;;;;;;6.47;3.83;;;18.00;99.90;;;;;;4972223;28;20019;-83
2022/05/13 10:58:44;;;;;;;5.70;3.38;;;18.00;99.90;;;;;;4993175;28;20054;-83
2022/05/13 11:01:43;;;;;;;10.77;4.50;;;18.00;99.90;;;;;;4985204;28;20034;-83
2022/05/13 11:04:33;;;;;;;15.20;4.38;;;18.50;99.90;;;;;;4981103;28;20030;-83
2022/05/13 11:07:25;;;;;;;5.63;3.40;;;18.90;99.90;;;;;;4981093;28;20038;-83
2022/05/13 11:10:22;;;;;;;9.45;4.20;;;19.40;99.90;;;;;;4978071;28;20046;-83
2022/05/13 11:13:16;;;;;;;8.55;3.65;;;20.60;99.90;;;;;;4990602;28;20034;-83
2022/05/13 11:16:11;;;;;;;6.90;3.85;;;20.40;99.90;;;;;;4985570;28;20026;-83
2022/05/13 11:18:58;;;;;;;9.68;3.97;;;20.40;94.50;;;;;;5002594;28;20027;-82
2022/05/13 11:21:47;;;;;;;9.27;4.43;;;19.60;99.90;;;;;;5020992;28;20037;-83
2022/05/13 11:28:33;;;;;;;7.65;4.18;;;18.80;99.90;;;;;;4994682;28;20080;-83
2022/05/13 11:31:02;;;;;;;8.82;4.30;;;19.00;99.90;;;;;;4987887;28;20050;-83
2022/05/13 11:33:27;;;;;;;5.78;3.30;;;19.70;93.80;;;;;;4976988;28;20035;-83
2022/05/13 11:36:28;;;;;;;7.75;4.32;;;19.80;99.90;;;;;;5005391;28;20042;-83
2022/05/13 11:39:42;;;;;;;8.85;3.83;;;20.60;99.90;;;;;;4984069;28;20038;-83
2022/05/13 11:42:31;;;;;;;8.18;4.82;;;20.70;98.80;;;;;;4958064;28;20081;-83
2022/05/13 11:45:34;;;;;;;8.32;4.50;;;19.60;92.80;;;;;;4983898;28;20042;-83
2022/05/13 11:48:18;;;;;;;5.85;3.60;;;19.00;99.90;;;;;;4989534;28;20068;-83
2022/05/13 11:50:44;;;;;;;6.85;4.22;;;19.30;97.20;;;;;;4986706;28;20490;-83
2022/05/13 11:53:09;;;;;;;8.98;4.75;;;18.90;99.90;;;;;;4990005;28;20037;-83
2022/05/13 11:55:41;;;;;;;6.80;4.15;;;19.60;99.90;;;;;;4988408;28;20065;-82
2022/05/13 11:58:08;;;;;;;11.50;5.15;;;19.80;95.90;;;;;;4990049;28;20037;-82
2022/05/13 12:00:41;;;;;;;9.32;4.60;;;20.10;99.20;;;;;;4982132;28;20785;-83
2022/05/13 12:03:09;;;;;;;7.35;4.53;;;20.60;98.60;;;;;;4987112;28;20041;-82
2022/05/13 12:06:07;;;;;;;8.57;4.65;;;20.10;93.90;;;;;;5004717;28;20030;-82
2022/05/13 12:08:41;;;;;;;9.00;4.95;;;20.30;96.00;;;;;;4984475;28;20092;-82
2022/05/13 12:11:32;;;;;;;8.73;5.18;;;20.20;95.00;;;;;;4989500;28;20029;-83
2022/05/13 12:14:26;;;;;;;9.00;5.32;;;20.30;94.60;;;;;;4988777;28;20054;-83
2022/05/13 12:17:11;;;;;;;7.68;4.80;;;20.10;94.70;;;;;;4990318;28;20026;-82
2022/05/13 12:20:04;;;;;;;10.75;4.80;;;19.80;95.20;;;;;;4989819;28;20437;-82
2022/05/13 12:22:30;;;;;;;12.00;5.00;;;19.50;98.60;;;;;;5005376;28;20035;-82
2022/05/13 12:25:02;;;;;;;7.70;4.45;;;19.50;97.00;;;;;;4989874;28;20535;-82
2022/05/13 12:27:35;;;;;;;10.98;4.90;;;19.80;95.90;;;;;;4989607;28;20422;-82
2022/05/13 12:30:29;;;;;;;5.50;4.47;;;19.50;95.30;;;;;;4985037;28;20035;-82
2022/05/13 12:32:56;;;;;;;8.43;4.55;;;19.60;99.90;;;;;;4998520;28;20118;-84
2022/05/13 12:38:26;;;;;;;7.53;4.80;;;19.70;95.90;;;;;;4985548;28;20085;-83
2022/05/13 12:40:59;;;;;;;9.23;4.45;;;20.00;94.70;;;;;;4990069;28;20054;-84
2022/05/13 12:44:06;;;;;;;9.30;4.50;;;20.30;94.20;;;;;;4989982;28;20350;-83
2022/05/13 12:46:42;;;;;;;7.40;5.03;;;20.80;92.20;;;;;;4986572;28;20449;-84
2022/05/13 12:49:12;;;;;;;8.43;5.00;;;21.00;91.20;;;;;;5005664;28;20042;-84
2022/05/13 12:52:08;;;;;;;8.33;4.77;;;21.20;89.60;;;;;;4989193;28;20114;-83
2022/05/13 12:54:43;;;;;;;8.98;4.55;;;20.70;89.70;;;;;;4989926;28;20030;-83
2022/05/13 12:57:19;;;;;;;10.23;4.75;;;20.70;88.80;;;;;;4989968;28;20023;-84
2022/05/13 12:59:51;;;;;;;9.52;5.22;;;20.40;87.80;;;;;;4988618;28;20140;-84
2022/05/13 13:02:19;;;;;;;7.28;4.75;;;20.10;91.60;;;;;;4991043;28;20037;-84
2022/05/13 13:05:00;;;;;;;11.48;4.82;;;19.70;92.40;;;;;;4990337;28;20129;-84
2022/05/13 13:07:28;;;;;;;8.75;4.93;;;19.60;94.50;;;;;;4980744;28;20082;-82
2022/05/13 13:09:57;;;;;;;7.30;3.75;;;19.90;95.10;;;;;;4988139;28;20080;-81
2022/05/13 13:12:40;;;;;;;10.95;4.60;;;20.40;93.00;;;;;;4989608;28;20023;-83
2022/05/13 13:15:06;;;;;;;9.45;4.32;;;20.50;92.10;;;;;;4982334;28;20035;-84
2022/05/13 13:17:46;;;;;;;7.50;4.72;;;20.70;90.50;;;;;;4983796;28;20030;-84
2022/05/13 13:20:15;;;;;;;8.38;4.53;;;20.70;93.50;;;;;;4986045;28;20031;-83
2022/05/13 13:22:44;;;;;;;7.03;4.18;;;21.00;90.60;;;;;;4988546;28;20037;-83
2022/05/13 13:25:22;;;;;;;7.85;4.30;;;21.20;90.30;;;;;;4977954;28;20348;-81
2022/05/13 13:27:48;;;;;;;6.07;4.47;;;21.40;89.00;;;;;;5009624;28;20027;-82
2022/05/13 13:30:20;;;;;;;11.05;4.93;;;21.60;81.20;;;;;;5007539;28;20026;-82
2022/05/13 13:32:48;;;;;;;6.80;4.53;;;21.90;81.30;;;;;;5015378;28;20078;-83
2022/05/13 13:35:14;;;;;;;10.45;4.90;;;22.80;77.70;;;;;;4982383;28;20109;-83
2022/05/13 13:37:40;;;;;;;9.50;4.63;;;22.70;70.80;;;;;;4985330;28;20027;-83